createdAt,value
2023-02-04T00:03:23.987Z,94.44
2023-02-04T00:15:15.629Z,94.47
2023-02-04T00:19:04.957Z,94.40
2023-02-04T00:22:54.086Z,94.44
2023-02-04T00:26:43.205Z,94.46
2023-02-04T00:30:31.231Z,94.51
2023-02-04T00:34:20.568Z,94.50
2023-02-04T00:38:09.568Z,94.52
2023-02-04T00:41:59.151Z,94.53
2023-02-04T00:45:48.314Z,94.55
2023-02-04T00:49:37.829Z,94.57
2023-02-04T00:53:26.974Z,94.55
2023-02-04T00:57:16.116Z,94.51
2023-02-04T01:01:05.130Z,94.45
2023-02-04T01:04:54.616Z,94.40
2023-02-04T01:08:43.804Z,94.34
2023-02-04T01:12:33.206Z,94.26
2023-02-04T01:16:22.348Z,94.19
2023-02-04T01:20:11.445Z,94.13
2023-02-04T01:24:00.477Z,94.09
2023-02-04T01:27:51.632Z,94.04
2023-02-04T01:31:40.716Z,94.01
2023-02-04T01:35:58.170Z,93.91
2023-02-04T01:39:47.243Z,93.83
2023-02-04T01:43:36.496Z,93.78
2023-02-04T01:47:25.663Z,93.76
2023-02-04T01:51:15.110Z,93.75
2023-02-04T01:55:04.069Z,93.75
2023-02-04T02:03:10.396Z,93.73
2023-02-04T02:06:58.061Z,93.73
2023-02-04T02:10:45.874Z,93.76
2023-02-04T02:14:34.016Z,93.75
2023-02-04T02:26:48.512Z,93.66
2023-02-04T02:30:39.140Z,93.65
2023-02-04T02:34:26.840Z,93.49
2023-02-04T02:38:14.907Z,93.33
2023-02-04T02:42:03.329Z,93.07
2023-02-04T02:46:02.190Z,93.10
2023-02-04T02:50:38.391Z,93.19
2023-02-04T02:54:26.595Z,93.17
2023-02-04T02:58:14.049Z,93.03
2023-02-04T03:02:03.022Z,92.77
2023-02-04T03:17:59.101Z,92.18
2023-02-04T03:21:46.928Z,92.22
2023-02-04T03:25:34.659Z,92.28
2023-02-04T03:29:22.390Z,92.31
2023-02-04T03:44:56.060Z,92.60
2023-02-04T03:48:45.151Z,92.68
2023-02-04T03:52:34.308Z,92.83
2023-02-04T03:56:24.363Z,92.71
2023-02-04T04:00:14.220Z,92.78
2023-02-04T04:04:03.479Z,92.84
2023-02-04T04:07:54.388Z,92.93
2023-02-04T04:11:44.295Z,92.90
2023-02-04T04:15:34.321Z,92.96
2023-02-04T04:23:11.413Z,93.06
2023-02-04T04:30:46.679Z,92.89
2023-02-04T04:34:36.065Z,92.93
2023-02-04T04:38:05.943Z,92.89
2023-02-04T04:41:55.683Z,92.82
2023-02-04T04:45:25.219Z,92.77
2023-02-04T04:49:14.360Z,92.68
2023-02-04T04:53:04.429Z,92.60
2023-02-04T04:56:53.653Z,92.62
2023-02-04T05:00:42.775Z,92.49
2023-02-04T05:04:31.937Z,92.41
2023-02-04T05:08:21.448Z,92.43
2023-02-04T05:12:10.494Z,92.45
2023-02-04T05:15:59.784Z,92.35
2023-02-04T05:19:49.221Z,92.07
2023-02-04T05:23:38.292Z,91.95
2023-02-04T05:27:27.316Z,91.62
2023-02-04T05:31:43.906Z,91.24
2023-02-04T05:35:32.919Z,91.27
2023-02-04T05:39:21.984Z,91.23
2023-02-04T05:43:11.412Z,90.91
2023-02-04T05:47:01.339Z,90.72
2023-02-04T06:02:39.293Z,90.25
2023-02-04T06:06:28.637Z,90.25
2023-02-04T06:10:17.724Z,89.91
2023-02-04T06:14:06.913Z,89.50
2023-02-04T06:17:56.848Z,89.31
2023-02-04T06:21:46.773Z,88.97
2023-02-04T06:25:35.944Z,88.96
2023-02-04T06:29:25.584Z,88.87
2023-02-04T06:32:55.455Z,88.89
2023-02-04T06:52:21.528Z,88.57
2023-02-04T06:56:10.654Z,88.47
2023-02-04T07:00:00.071Z,88.02
2023-02-04T07:03:49.354Z,87.92
2023-02-04T07:07:38.629Z,87.76
2023-02-04T07:11:27.824Z,87.71
2023-02-04T07:15:17.621Z,87.70
2023-02-04T07:19:06.744Z,87.79
2023-02-04T07:22:55.846Z,87.85
2023-02-04T07:26:45.006Z,87.96
2023-02-04T07:30:34.779Z,88.05
2023-02-04T07:34:24.158Z,88.09
2023-02-04T07:38:14.681Z,88.22
2023-02-04T07:42:03.710Z,88.25
2023-02-04T07:45:53.078Z,88.30
2023-02-04T07:49:42.098Z,88.46
2023-02-04T07:53:59.844Z,88.57
2023-02-04T07:57:48.852Z,88.69
2023-02-04T08:01:38.134Z,88.64
2023-02-04T08:05:27.229Z,88.55
2023-02-04T08:09:16.209Z,88.51
2023-02-04T08:13:05.388Z,88.31
2023-02-04T08:16:54.494Z,88.25
2023-02-04T08:20:43.858Z,88.08
2023-02-04T08:24:34.251Z,87.91
2023-02-04T08:28:24.377Z,87.51
2023-02-04T08:32:14.696Z,87.15
2023-02-04T08:36:05.879Z,86.96
2023-02-04T08:39:54.914Z,86.67
2023-02-04T08:43:44.767Z,86.51
2023-02-04T08:47:34.842Z,86.54
2023-02-04T08:51:23.879Z,86.38
2023-02-04T08:55:13.298Z,86.47
2023-02-04T08:59:02.703Z,86.32
2023-02-04T09:02:51.721Z,86.16
2023-02-04T09:06:33.756Z,85.77
2023-02-04T09:10:15.200Z,85.48
2023-02-04T09:14:04.294Z,85.12
2023-02-04T09:17:53.653Z,84.70
2023-02-04T09:21:43.436Z,84.32
2023-02-04T09:25:32.597Z,84.09
2023-02-04T09:29:21.652Z,84.25
2023-02-04T09:33:11.013Z,84.02
2023-02-04T09:37:00.011Z,83.78
2023-02-04T09:40:49.403Z,83.69
2023-02-04T09:44:44.240Z,83.73
2023-02-04T09:48:25.713Z,83.75
2023-02-04T09:52:14.681Z,83.74
2023-02-04T09:56:04.130Z,83.96
2023-02-04T09:59:53.248Z,84.06
2023-02-04T10:26:41.637Z,80.67
2023-02-04T10:30:23.392Z,81.32
2023-02-04T10:34:12.346Z,82.37
2023-02-04T10:38:01.630Z,83.94
2023-02-04T10:41:51.181Z,83.89
2023-02-04T10:45:42.205Z,83.44
2023-02-04T10:53:17.515Z,79.18
2023-02-04T11:05:27.582Z,75.08
2023-02-04T11:09:17.927Z,75.52
2023-02-04T11:13:17.596Z,76.44
2023-02-04T11:25:18.042Z,75.01
2023-02-04T11:29:28.884Z,74.31
2023-02-04T11:41:47.143Z,71.88
2023-02-04T11:45:39.557Z,72.06
2023-02-04T11:49:28.626Z,71.20
2023-02-04T11:53:20.025Z,70.78
2023-02-04T11:57:21.832Z,70.87
2023-02-04T12:01:15.828Z,71.16
2023-02-04T12:13:05.573Z,69.17
2023-02-04T12:17:06.106Z,69.69
2023-02-04T12:20:55.174Z,69.39
2023-02-04T12:33:04.983Z,68.76
2023-02-04T12:36:52.656Z,68.66
2023-02-04T12:40:40.304Z,68.25
2023-02-04T12:44:28.413Z,68.71
2023-02-04T13:00:06.254Z,69.09
2023-02-04T13:03:55.438Z,69.85
2023-02-04T13:07:44.274Z,70.50
2023-02-04T13:11:33.287Z,71.16
2023-02-04T13:15:22.264Z,70.37
2023-02-04T13:19:11.803Z,69.26
2023-02-04T13:23:00.880Z,69.30
2023-02-04T13:26:50.299Z,69.36
2023-02-04T13:30:39.504Z,69.47
2023-02-04T13:34:28.705Z,69.32
2023-02-04T13:38:17.803Z,69.75
2023-02-04T13:42:07.171Z,70.30
2023-02-04T13:45:56.258Z,70.45
2023-02-04T13:49:45.725Z,70.67
2023-02-04T13:53:34.822Z,70.94
2023-02-04T13:57:23.990Z,71.06
2023-02-04T14:01:13.390Z,71.14
2023-02-04T14:05:02.746Z,71.20
2023-02-04T14:08:52.014Z,71.42
2023-02-04T14:12:41.076Z,72.00
2023-02-04T14:16:30.218Z,72.55
2023-02-04T14:20:20.312Z,73.00
2023-02-04T14:24:09.581Z,72.97
2023-02-04T14:28:00.356Z,72.83
2023-02-04T14:31:49.710Z,73.18
2023-02-04T14:35:39.014Z,73.37
2023-02-04T14:39:29.188Z,73.39
2023-02-04T14:43:17.533Z,73.50
2023-02-04T14:47:34.035Z,73.60
2023-02-04T14:51:13.897Z,73.64
2023-02-04T14:54:51.805Z,73.60
2023-02-04T14:58:03.638Z,73.63
2023-02-04T15:01:27.735Z,73.67
2023-02-04T15:05:10.385Z,73.97
2023-02-04T15:08:22.652Z,73.94
2023-02-04T15:11:37.010Z,74.10
2023-02-04T15:14:53.162Z,74.31
2023-02-04T15:17:42.136Z,74.48
2023-02-04T15:20:58.208Z,74.60
2023-02-04T15:24:14.793Z,74.80
2023-02-04T15:27:26.220Z,74.93
2023-02-04T15:30:58.281Z,74.88
2023-02-04T15:34:21.262Z,74.98
2023-02-04T15:37:36.638Z,75.63
2023-02-04T15:40:39.313Z,76.23
2023-02-04T15:44:28.447Z,76.93
2023-02-04T15:48:17.849Z,77.46
2023-02-04T15:52:13.481Z,78.22
2023-02-04T16:04:10.665Z,80.28
2023-02-04T16:07:59.873Z,80.32
2023-02-04T16:11:49.831Z,80.97
2023-02-04T16:23:43.541Z,81.43
2023-02-04T16:27:33.350Z,81.65
2023-02-04T16:31:22.585Z,81.29
2023-02-04T16:35:12.074Z,81.14
2023-02-04T16:39:10.620Z,81.14
2023-02-04T16:42:41.407Z,81.17
2023-02-04T16:46:30.787Z,81.02
2023-02-04T16:50:21.171Z,81.31
2023-02-04T16:54:11.001Z,81.86
2023-02-04T16:58:00.267Z,82.20
2023-02-04T17:01:51.565Z,82.04
2023-02-04T17:05:40.870Z,83.04
2023-02-04T17:09:31.247Z,83.57
2023-02-04T17:13:22.043Z,83.79
2023-02-04T17:17:11.588Z,84.07
2023-02-04T17:21:00.978Z,83.69
2023-02-04T17:24:42.607Z,83.47
2023-02-04T17:28:20.053Z,83.13
2023-02-04T17:32:09.853Z,82.26
2023-02-04T17:35:59.677Z,82.13
2023-02-04T17:39:49.038Z,81.70
2023-02-04T17:43:38.178Z,81.53
2023-02-04T17:47:27.241Z,81.37
2023-02-04T17:51:16.545Z,81.26
2023-02-04T17:54:58.695Z,81.29
2023-02-04T17:58:48.145Z,81.24
2023-02-04T18:02:39.920Z,81.36
2023-02-04T18:22:24.728Z,82.29
2023-02-04T18:26:14.661Z,82.44
2023-02-04T18:30:13.104Z,82.55
2023-02-04T18:34:05.227Z,82.41
2023-02-04T18:38:03.613Z,82.58
2023-02-04T18:50:35.824Z,83.16
2023-02-04T18:54:26.530Z,83.14
2023-02-04T18:57:53.816Z,82.93
2023-02-04T19:09:46.828Z,82.74
2023-02-04T19:13:36.102Z,82.90
2023-02-04T19:17:25.641Z,82.82
2023-02-04T19:29:26.972Z,82.45
2023-02-04T19:33:25.731Z,82.36
2023-02-04T19:49:40.288Z,81.16
2023-02-04T19:53:36.667Z,81.20
2023-02-04T20:05:32.304Z,80.02
2023-02-04T20:09:29.127Z,80.09
2023-02-04T20:13:09.469Z,80.14
2023-02-04T20:17:16.826Z,80.15
2023-02-04T20:21:11.894Z,80.05
2023-02-04T20:36:59.530Z,80.54
2023-02-04T20:40:47.182Z,80.95
2023-02-04T20:56:37.237Z,82.56
2023-02-04T21:00:26.256Z,82.68
2023-02-04T21:04:18.760Z,83.22
2023-02-04T21:08:08.600Z,83.52
2023-02-04T21:11:51.186Z,83.45
2023-02-04T21:27:29.293Z,83.93
2023-02-04T21:31:18.367Z,84.02
2023-02-04T21:35:07.765Z,83.88
2023-02-04T21:38:56.463Z,83.70
2023-02-04T21:42:46.054Z,83.63
2023-02-04T21:46:35.303Z,83.60
2023-02-04T21:50:24.369Z,83.32
2023-02-04T21:54:13.503Z,83.17
2023-02-04T21:58:02.741Z,83.07
2023-02-04T22:01:51.846Z,82.81
2023-02-04T22:05:41.464Z,82.40
2023-02-04T22:09:11.149Z,82.40
2023-02-04T22:13:01.110Z,82.37
2023-02-04T22:16:49.976Z,82.06
2023-02-04T22:28:42.190Z,81.43
2023-02-04T22:32:31.190Z,81.60
2023-02-04T22:36:20.640Z,81.67
2023-02-04T22:40:09.769Z,81.68
2023-02-04T22:43:58.976Z,81.65
2023-02-04T22:47:48.012Z,81.54
2023-02-04T22:51:37.321Z,81.54
2023-02-04T22:55:26.233Z,81.30
2023-02-04T22:59:15.266Z,81.31
2023-02-04T23:03:04.355Z,81.25
2023-02-04T23:06:54.748Z,81.00
2023-02-04T23:10:43.830Z,80.95
2023-02-04T23:14:34.090Z,80.86
2023-02-04T23:18:23.225Z,80.79
2023-02-04T23:22:12.663Z,80.76
2023-02-04T23:26:02.999Z,80.69
2023-02-04T23:45:48.443Z,80.03
2023-02-04T23:49:35.973Z,80.21
2023-02-04T23:53:23.846Z,80.24
2023-02-04T23:57:11.477Z,80.24
